createdAt,value
2022-12-20T00:00:26.876Z,44.67
2022-12-20T00:02:55.650Z,56.77
2022-12-20T00:05:24.400Z,83.33
2022-12-20T00:07:53.157Z,49.80
2022-12-20T00:10:23.655Z,46.43
2022-12-20T00:12:52.469Z,46.67
2022-12-20T00:15:21.165Z,51.20
2022-12-20T00:17:50.020Z,80.47
2022-12-20T00:20:18.885Z,49.63
2022-12-20T00:22:47.644Z,56.00
2022-12-20T00:25:16.669Z,55.57
2022-12-20T00:27:49.540Z,58.70
2022-12-20T00:30:19.288Z,54.50
2022-12-20T00:32:48.795Z,53.17
2022-12-20T00:35:17.709Z,62.30
2022-12-20T00:37:46.584Z,51.50
2022-12-20T00:40:16.361Z,57.73
2022-12-20T00:42:45.090Z,62.97
2022-12-20T00:45:15.376Z,56.57
2022-12-20T00:47:44.147Z,56.20
2022-12-20T00:50:13.689Z,58.43
2022-12-20T00:52:42.482Z,64.57
2022-12-20T00:55:11.871Z,55.43
2022-12-20T00:57:40.608Z,62.83
2022-12-20T01:00:11.652Z,49.03
2022-12-20T01:02:42.017Z,49.97
2022-12-20T01:08:03.085Z,68.60
2022-12-20T01:10:30.995Z,52.00
2022-12-20T01:12:59.921Z,61.47
2022-12-20T01:15:28.180Z,43.17
2022-12-20T01:17:57.193Z,58.87
2022-12-20T01:20:24.920Z,50.47
2022-12-20T01:22:53.758Z,53.70
2022-12-20T01:25:24.079Z,41.40
2022-12-20T01:27:54.422Z,44.13
2022-12-20T01:30:23.288Z,47.97
2022-12-20T01:32:52.021Z,45.67
2022-12-20T01:35:20.881Z,42.60
2022-12-20T01:37:49.821Z,43.30
2022-12-20T01:40:18.808Z,39.73
2022-12-20T01:42:50.187Z,40.67
2022-12-20T01:45:30.415Z,40.77
2022-12-20T01:48:01.073Z,43.40
2022-12-20T01:50:29.967Z,42.33
2022-12-20T01:53:00.249Z,40.17
2022-12-20T01:55:30.543Z,43.17
2022-12-20T01:58:06.189Z,39.70
2022-12-20T02:00:35.128Z,35.40
2022-12-20T02:03:09.639Z,44.37
2022-12-20T02:05:41.304Z,52.33
2022-12-20T02:08:13.263Z,46.80
2022-12-20T02:11:03.558Z,44.30
2022-12-20T02:13:52.044Z,46.57
2022-12-20T02:16:31.060Z,41.63
2022-12-20T02:19:14.174Z,48.47
2022-12-20T02:21:53.386Z,44.97
2022-12-20T02:25:03.699Z,45.77
2022-12-20T02:27:57.205Z,39.57
2022-12-20T02:30:34.296Z,44.60
2022-12-20T02:33:06.530Z,44.13
2022-12-20T02:35:42.783Z,47.93
2022-12-20T02:38:31.225Z,46.20
2022-12-20T02:41:07.652Z,48.83
2022-12-20T02:43:59.621Z,52.23
2022-12-20T02:46:31.065Z,52.63
2022-12-20T02:49:06.182Z,48.20
2022-12-20T02:51:36.298Z,44.77
2022-12-20T02:54:06.369Z,41.33
2022-12-20T02:56:44.127Z,46.87
2022-12-20T02:59:17.787Z,46.80
2022-12-20T03:02:20.418Z,42.97
2022-12-20T03:04:49.572Z,41.10
2022-12-20T03:07:18.551Z,50.43
2022-12-20T03:09:47.836Z,41.40
2022-12-20T03:12:17.830Z,54.27
2022-12-20T03:14:46.727Z,53.97
2022-12-20T03:17:16.713Z,57.83
2022-12-20T03:19:47.054Z,57.87
2022-12-20T03:22:15.884Z,55.00
2022-12-20T03:24:44.633Z,52.60
2022-12-20T03:27:14.884Z,57.67
2022-12-20T03:29:44.720Z,52.63
2022-12-20T03:32:14.305Z,69.57
2022-12-20T03:34:47.655Z,57.83
2022-12-20T03:37:19.734Z,55.67
2022-12-20T03:39:49.573Z,59.07
2022-12-20T03:42:19.666Z,56.23
2022-12-20T03:44:48.554Z,50.93
2022-12-20T03:47:18.065Z,53.00
2022-12-20T03:49:49.910Z,54.10
2022-12-20T03:52:18.664Z,48.60
2022-12-20T03:54:49.647Z,54.87
2022-12-20T03:57:21.655Z,51.53
2022-12-20T03:59:54.346Z,51.03
2022-12-20T04:02:24.042Z,57.53
2022-12-20T04:04:55.485Z,52.80
2022-12-20T04:07:24.775Z,51.33
2022-12-20T04:09:53.774Z,49.40
2022-12-20T04:12:22.689Z,55.70
2022-12-20T04:14:51.544Z,51.23
2022-12-20T04:17:20.335Z,53.67
2022-12-20T04:19:50.361Z,69.70
2022-12-20T04:22:21.875Z,58.87
2022-12-20T04:24:57.514Z,54.00
2022-12-20T04:27:33.780Z,52.03
2022-12-20T04:30:05.832Z,58.20
2022-12-20T04:32:35.218Z,58.73
2022-12-20T04:35:04.807Z,56.73
2022-12-20T04:37:40.455Z,56.33
2022-12-20T04:40:11.390Z,70.27
2022-12-20T04:42:49.882Z,56.93
2022-12-20T04:45:19.623Z,64.80
2022-12-20T04:47:49.885Z,54.63
2022-12-20T04:50:24.327Z,58.20
2022-12-20T04:53:11.881Z,57.27
2022-12-20T04:55:41.798Z,58.30
2022-12-20T04:58:10.801Z,57.27
2022-12-20T05:00:42.156Z,58.57
2022-12-20T05:03:34.178Z,55.77
2022-12-20T05:06:03.642Z,58.13
2022-12-20T05:08:34.695Z,62.20
2022-12-20T05:11:04.837Z,71.77
2022-12-20T05:13:35.451Z,71.07
2022-12-20T05:16:05.020Z,69.87
2022-12-20T05:18:36.396Z,69.87
2022-12-20T05:21:26.047Z,84.53
2022-12-20T05:24:29.165Z,80.97
2022-12-20T05:27:05.419Z,71.47
2022-12-20T05:29:34.644Z,76.10
2022-12-20T05:32:03.923Z,69.73
2022-12-20T05:39:34.422Z,87.30
2022-12-20T05:42:07.384Z,91.60
2022-12-20T05:44:35.536Z,139.13
2022-12-20T05:47:03.444Z,124.57
2022-12-20T05:49:34.491Z,148.63
2022-12-20T05:52:05.056Z,104.57
2022-12-20T05:54:35.000Z,94.80
2022-12-20T05:57:08.517Z,99.50
2022-12-20T05:59:40.800Z,76.57
2022-12-20T06:02:17.013Z,99.73
2022-12-20T06:04:47.536Z,96.70
2022-12-20T06:07:20.154Z,123.60
2022-12-20T06:09:54.219Z,80.27
2022-12-20T06:12:29.200Z,102.10
2022-12-20T06:14:58.252Z,78.43
2022-12-20T06:17:27.133Z,91.87
2022-12-20T06:19:57.029Z,98.27
2022-12-20T06:22:26.457Z,133.60
2022-12-20T06:24:59.948Z,118.30
2022-12-20T06:27:32.970Z,134.43
2022-12-20T06:30:17.701Z,138.40
2022-12-20T06:33:13.100Z,146.53
2022-12-20T06:35:42.671Z,98.30
2022-12-20T06:38:12.370Z,130.27
2022-12-20T06:40:42.835Z,167.60
2022-12-20T06:43:11.779Z,174.97
2022-12-20T06:45:42.158Z,109.03
2022-12-20T06:48:13.251Z,172.47
2022-12-20T06:50:43.997Z,88.63
2022-12-20T06:53:13.030Z,96.17
2022-12-20T06:55:43.452Z,82.07
2022-12-20T06:58:13.698Z,90.00
2022-12-20T07:00:42.540Z,91.97
2022-12-20T07:03:11.457Z,98.20
2022-12-20T07:05:40.535Z,128.87
2022-12-20T07:08:10.359Z,84.53
2022-12-20T07:10:39.761Z,82.30
2022-12-20T07:13:09.994Z,106.90
2022-12-20T07:15:39.199Z,83.30
2022-12-20T07:18:08.137Z,79.47
2022-12-20T07:20:37.688Z,79.43
2022-12-20T07:23:06.610Z,69.73
2022-12-20T07:25:35.357Z,77.63
2022-12-20T07:28:05.023Z,91.20
2022-12-20T07:30:35.352Z,72.73
2022-12-20T07:33:04.191Z,82.10
2022-12-20T07:35:32.944Z,90.60
2022-12-20T07:38:01.676Z,83.63
2022-12-20T07:40:30.506Z,102.73
2022-12-20T07:42:59.441Z,90.57
2022-12-20T07:45:28.356Z,76.83
2022-12-20T07:48:04.926Z,86.23
2022-12-20T07:50:38.416Z,71.13
2022-12-20T07:53:09.429Z,104.07
2022-12-20T07:55:42.277Z,86.63
2022-12-20T07:58:12.933Z,73.73
2022-12-20T08:00:42.123Z,81.37
2022-12-20T08:03:18.245Z,72.63
2022-12-20T08:05:53.308Z,89.97
2022-12-20T08:08:22.819Z,84.63
2022-12-20T08:10:52.492Z,78.37
2022-12-20T08:13:21.412Z,90.63
2022-12-20T08:15:50.218Z,88.30
2022-12-20T08:18:20.524Z,73.03
2022-12-20T08:20:49.397Z,71.00
2022-12-20T08:23:19.583Z,100.13
2022-12-20T08:25:48.356Z,102.00
2022-12-20T08:28:17.233Z,112.90
2022-12-20T08:30:46.833Z,141.47
2022-12-20T08:33:15.760Z,122.73
2022-12-20T08:35:45.963Z,112.83
2022-12-20T08:38:14.963Z,98.53
2022-12-20T08:40:43.749Z,93.37
2022-12-20T08:43:12.514Z,82.53
2022-12-20T08:45:41.367Z,102.10
2022-12-20T08:48:10.169Z,84.33
2022-12-20T08:50:39.809Z,79.00
2022-12-20T08:53:10.009Z,61.97
2022-12-20T08:55:38.910Z,71.63
2022-12-20T08:58:07.735Z,80.77
2022-12-20T09:00:37.354Z,100.57
2022-12-20T09:03:07.535Z,87.00
2022-12-20T09:05:36.556Z,53.50
2022-12-20T09:08:05.636Z,78.97
2022-12-20T09:10:35.812Z,123.40
2022-12-20T09:13:04.631Z,100.47
2022-12-20T09:15:35.725Z,110.23
2022-12-20T09:18:05.784Z,135.73
2022-12-20T09:20:34.689Z,67.27
2022-12-20T09:23:03.401Z,65.10
2022-12-20T09:25:32.187Z,72.03
2022-12-20T09:28:02.588Z,61.50
2022-12-20T09:30:31.418Z,53.23
2022-12-20T09:33:08.623Z,46.53
2022-12-20T09:35:46.231Z,48.23
2022-12-20T09:38:15.627Z,40.60
2022-12-20T09:40:50.205Z,45.70
2022-12-20T09:43:23.384Z,43.00
2022-12-20T09:45:58.567Z,36.67
2022-12-20T09:48:31.910Z,41.63
2022-12-20T09:51:19.220Z,38.57
2022-12-20T09:54:07.692Z,40.23
2022-12-20T09:56:45.079Z,39.47
2022-12-20T09:59:20.128Z,47.73
2022-12-20T10:01:51.718Z,40.33
2022-12-20T10:04:25.928Z,40.50
2022-12-20T10:07:15.782Z,34.77
2022-12-20T10:10:24.577Z,37.07
2022-12-20T10:13:05.029Z,36.03
2022-12-20T10:15:41.813Z,60.90
2022-12-20T10:18:34.005Z,115.03
2022-12-20T10:21:12.335Z,92.10
2022-12-20T10:23:57.326Z,58.70
2022-12-20T10:26:26.200Z,87.60
2022-12-20T10:28:55.028Z,56.43
2022-12-20T10:31:26.645Z,44.83
2022-12-20T10:33:55.822Z,44.93
2022-12-20T10:36:28.601Z,47.27
2022-12-20T10:39:00.208Z,44.87
2022-12-20T10:41:32.070Z,42.80
2022-12-20T10:44:05.427Z,41.43
2022-12-20T10:46:42.860Z,41.40
2022-12-20T10:49:41.288Z,44.57
2022-12-20T10:52:15.640Z,41.60
2022-12-20T10:54:46.542Z,37.73
2022-12-20T10:57:22.559Z,35.47
2022-12-20T10:59:55.247Z,38.30
2022-12-20T11:02:40.147Z,37.73
2022-12-20T11:05:26.012Z,40.50
2022-12-20T11:10:48.991Z,38.30
2022-12-20T11:13:26.018Z,37.80
2022-12-20T11:16:01.602Z,38.03
2022-12-20T11:18:51.364Z,38.37
2022-12-20T11:21:34.237Z,35.67
2022-12-20T11:24:14.530Z,34.23
2022-12-20T11:27:15.291Z,38.70
2022-12-20T11:30:06.280Z,37.77
2022-12-20T11:33:21.638Z,36.20
2022-12-20T11:36:03.983Z,37.07
2022-12-20T11:38:43.939Z,35.10
2022-12-20T11:41:29.531Z,34.77
2022-12-20T11:44:25.695Z,35.83
2022-12-20T11:47:44.191Z,37.87
2022-12-20T11:50:47.691Z,35.43
2022-12-20T11:53:28.444Z,35.20
2022-12-20T11:56:06.851Z,37.07
2022-12-20T11:58:50.245Z,34.23
2022-12-20T12:01:22.482Z,37.33
2022-12-20T12:04:06.867Z,37.17
2022-12-20T12:06:40.947Z,38.67
2022-12-20T12:09:31.823Z,38.83
2022-12-20T12:12:09.190Z,37.17
2022-12-20T12:14:54.534Z,35.80
2022-12-20T12:17:35.591Z,38.57
2022-12-20T12:20:33.258Z,35.13
2022-12-20T12:23:12.103Z,37.63
2022-12-20T12:25:42.257Z,36.73
2022-12-20T12:28:15.244Z,38.53
2022-12-20T12:30:52.686Z,35.43
2022-12-20T12:33:29.148Z,35.73
2022-12-20T12:36:38.907Z,35.60
2022-12-20T12:39:45.087Z,34.07
2022-12-20T12:43:11.608Z,33.80
2022-12-20T12:45:48.196Z,36.27
2022-12-20T12:48:25.372Z,32.37
2022-12-20T12:50:59.329Z,35.00
2022-12-20T12:53:38.678Z,38.87
2022-12-20T12:56:44.572Z,34.20
2022-12-20T12:59:52.680Z,30.63
2022-12-20T13:02:50.481Z,35.83
2022-12-20T13:05:37.215Z,32.87
2022-12-20T13:08:18.228Z,36.93
2022-12-20T13:11:03.525Z,32.93
2022-12-20T13:13:32.422Z,31.87
2022-12-20T13:16:42.028Z,33.63
2022-12-20T13:19:52.109Z,35.23
2022-12-20T13:22:23.854Z,30.77
2022-12-20T13:24:57.946Z,32.70
2022-12-20T13:27:39.052Z,27.93
2022-12-20T13:30:28.415Z,32.37
2022-12-20T13:33:24.534Z,34.23
2022-12-20T13:36:34.791Z,30.47
2022-12-20T13:39:20.954Z,31.43
2022-12-20T13:41:55.647Z,28.43
2022-12-20T13:44:42.369Z,32.13
2022-12-20T13:47:37.776Z,30.47
2022-12-20T13:50:38.799Z,32.50
2022-12-20T13:53:16.160Z,28.30
2022-12-20T13:55:45.400Z,29.57
2022-12-20T13:58:19.856Z,31.57
2022-12-20T14:00:50.196Z,31.10
2022-12-20T14:03:26.533Z,32.60
2022-12-20T14:06:02.078Z,31.40
2022-12-20T14:08:35.507Z,28.03
2022-12-20T14:11:13.545Z,33.13
2022-12-20T14:13:43.495Z,31.77
2022-12-20T14:16:17.063Z,28.70
2022-12-20T14:18:50.852Z,30.07
2022-12-20T14:21:22.186Z,29.63
2022-12-20T14:23:54.386Z,29.27
2022-12-20T14:26:28.095Z,33.07
2022-12-20T14:29:00.338Z,32.10
2022-12-20T14:31:39.528Z,32.07
2022-12-20T14:34:16.583Z,30.60
2022-12-20T14:36:49.823Z,28.57
2022-12-20T14:39:28.428Z,32.00
2022-12-20T14:41:59.496Z,30.70
2022-12-20T14:44:31.310Z,31.07
2022-12-20T14:47:02.487Z,30.03
2022-12-20T14:49:34.561Z,27.87
2022-12-20T14:52:17.949Z,31.83
2022-12-20T14:55:08.956Z,28.77
2022-12-20T14:57:48.710Z,29.03
2022-12-20T15:00:27.789Z,28.30
2022-12-20T15:03:04.436Z,29.67
2022-12-20T15:05:50.958Z,27.83
2022-12-20T15:08:27.375Z,27.40
2022-12-20T15:11:04.244Z,30.17
2022-12-20T15:13:35.861Z,25.93
2022-12-20T15:16:07.967Z,29.23
2022-12-20T15:18:36.702Z,30.57
2022-12-20T15:21:11.835Z,29.67
2022-12-20T15:23:48.891Z,31.23
2022-12-20T15:26:19.765Z,31.63
2022-12-20T15:28:48.810Z,34.60
2022-12-20T15:31:22.229Z,32.17
2022-12-20T15:33:53.977Z,33.40
2022-12-20T15:36:26.517Z,36.90
2022-12-20T15:39:15.704Z,38.23
2022-12-20T15:41:49.781Z,37.57
2022-12-20T15:44:23.670Z,34.07
2022-12-20T15:46:53.423Z,32.43
2022-12-20T15:49:25.803Z,33.30
2022-12-20T15:51:56.296Z,35.13
2022-12-20T15:54:30.479Z,35.47
2022-12-20T15:57:03.036Z,37.37
2022-12-20T16:02:25.174Z,37.63
2022-12-20T16:04:56.018Z,35.80
2022-12-20T16:07:25.045Z,37.43
2022-12-20T16:09:55.813Z,34.93
2022-12-20T16:12:31.642Z,34.17
2022-12-20T16:15:00.364Z,37.63
2022-12-20T16:17:29.159Z,30.70
2022-12-20T16:19:58.308Z,33.80
2022-12-20T16:22:27.248Z,36.17
2022-12-20T16:24:57.365Z,35.67
2022-12-20T16:27:26.075Z,35.70
2022-12-20T16:29:54.813Z,36.10
2022-12-20T16:32:23.705Z,37.57
2022-12-20T16:34:53.229Z,41.87
2022-12-20T16:37:23.423Z,42.33
2022-12-20T16:39:52.453Z,38.20
2022-12-20T16:42:23.539Z,40.03
2022-12-20T16:44:57.166Z,38.27
2022-12-20T16:47:28.566Z,37.03
2022-12-20T16:49:57.439Z,41.47
2022-12-20T16:52:26.348Z,38.87
2022-12-20T16:54:55.117Z,36.13
2022-12-20T16:57:25.422Z,41.57
2022-12-20T16:59:54.573Z,37.80
2022-12-20T17:02:30.927Z,38.80
2022-12-20T17:05:02.353Z,44.77
2022-12-20T17:07:36.520Z,44.00
2022-12-20T17:10:11.968Z,45.27
2022-12-20T17:12:42.386Z,45.77
2022-12-20T17:15:21.121Z,45.03
2022-12-20T17:17:52.042Z,45.50
2022-12-20T17:20:29.027Z,43.67
2022-12-20T17:25:53.742Z,39.17
2022-12-20T17:28:26.417Z,45.53
2022-12-20T17:30:55.280Z,50.00
2022-12-20T17:33:24.075Z,45.10
2022-12-20T17:35:53.774Z,41.80
2022-12-20T17:38:22.958Z,42.67
2022-12-20T17:40:52.488Z,43.70
2022-12-20T17:43:21.869Z,39.57
2022-12-20T17:45:52.924Z,40.97
2022-12-20T17:48:26.178Z,41.50
2022-12-20T17:50:57.868Z,40.27
2022-12-20T17:53:27.221Z,45.70
2022-12-20T17:55:56.125Z,40.70
2022-12-20T17:58:25.416Z,43.07
2022-12-20T18:00:55.953Z,41.77
2022-12-20T18:04:01.698Z,38.43
2022-12-20T18:06:14.658Z,38.40
2022-12-20T18:08:44.168Z,38.10
2022-12-20T18:11:13.359Z,37.00
2022-12-20T18:13:45.317Z,46.27
2022-12-20T18:16:21.096Z,41.77
2022-12-20T18:18:53.301Z,40.47
2022-12-20T18:21:26.451Z,42.00
2022-12-20T18:23:57.631Z,46.83
2022-12-20T18:26:29.794Z,42.03
2022-12-20T18:29:02.205Z,38.60
2022-12-20T18:31:36.089Z,38.13
2022-12-20T18:34:05.665Z,38.23
2022-12-20T18:36:38.296Z,44.60
2022-12-20T18:39:09.712Z,47.67
2022-12-20T18:41:39.038Z,45.77
2022-12-20T18:44:08.693Z,45.40
2022-12-20T18:46:38.936Z,45.53
2022-12-20T18:49:08.073Z,42.37
2022-12-20T18:51:38.620Z,45.70
2022-12-20T18:54:09.687Z,47.67
2022-12-20T18:56:40.679Z,47.50
2022-12-20T18:59:12.499Z,44.07
2022-12-20T19:01:44.362Z,43.83
2022-12-20T19:04:14.311Z,43.00
2022-12-20T19:06:44.804Z,43.47
2022-12-20T19:09:15.317Z,44.70
2022-12-20T19:11:44.482Z,44.40
2022-12-20T19:14:14.549Z,43.73
2022-12-20T19:16:44.934Z,66.47
2022-12-20T19:19:13.774Z,75.50
2022-12-20T19:21:43.193Z,58.53
2022-12-20T19:25:03.343Z,54.10
2022-12-20T19:27:39.348Z,49.87
2022-12-20T19:30:11.300Z,53.70
2022-12-20T19:32:41.587Z,51.60
2022-12-20T19:35:45.201Z,52.53
2022-12-20T19:37:59.682Z,53.23
2022-12-20T19:40:28.944Z,48.63
2022-12-20T19:42:57.872Z,58.40
2022-12-20T19:45:26.688Z,49.23
2022-12-20T19:47:59.070Z,60.80
2022-12-20T19:50:27.921Z,63.70
2022-12-20T19:52:56.905Z,53.57
2022-12-20T19:55:28.109Z,54.53
2022-12-20T19:57:57.099Z,44.97
2022-12-20T20:00:28.694Z,48.83
2022-12-20T20:02:59.207Z,47.27
2022-12-20T20:05:28.623Z,49.87
2022-12-20T20:07:57.805Z,53.57
2022-12-20T20:10:27.509Z,52.23
2022-12-20T20:12:56.754Z,50.70
2022-12-20T20:15:26.372Z,55.73
2022-12-20T20:17:55.629Z,53.17
2022-12-20T20:20:25.899Z,52.77
2022-12-20T20:22:54.803Z,47.07
2022-12-20T20:25:23.663Z,50.97
2022-12-20T20:27:52.572Z,51.57
2022-12-20T20:30:23.432Z,50.47
2022-12-20T20:32:52.319Z,46.27
2022-12-20T20:35:21.217Z,50.10
2022-12-20T20:37:51.365Z,46.77
2022-12-20T20:40:20.302Z,48.20
2022-12-20T20:42:49.135Z,52.57
2022-12-20T20:45:18.083Z,46.07
2022-12-20T20:47:46.893Z,47.77
2022-12-20T20:50:15.795Z,48.07
2022-12-20T20:52:44.540Z,46.10
2022-12-20T20:55:14.761Z,43.03
2022-12-20T20:57:43.594Z,47.80
2022-12-20T21:00:14.509Z,48.20
2022-12-20T21:02:43.847Z,45.80
2022-12-20T21:08:01.565Z,47.63
2022-12-20T21:10:32.500Z,50.00
2022-12-20T21:13:01.352Z,47.00
2022-12-20T21:15:30.368Z,49.20
2022-12-20T21:17:59.353Z,45.57
2022-12-20T21:20:28.171Z,50.33
2022-12-20T21:22:57.390Z,49.87
2022-12-20T21:25:26.231Z,49.90
2022-12-20T21:27:57.171Z,53.93
2022-12-20T21:30:26.569Z,43.73
2022-12-20T21:32:55.325Z,44.77
2022-12-20T21:35:24.099Z,47.77
2022-12-20T21:37:53.390Z,42.10
2022-12-20T21:40:22.196Z,43.20
2022-12-20T21:42:50.895Z,42.03
2022-12-20T21:45:21.505Z,49.73
2022-12-20T21:47:50.321Z,53.37
2022-12-20T21:50:19.198Z,51.97
2022-12-20T21:52:48.851Z,54.10
2022-12-20T21:55:18.084Z,55.67
2022-12-20T21:57:48.381Z,55.07
2022-12-20T22:00:19.862Z,51.43
2022-12-20T22:02:50.350Z,42.07
2022-12-20T22:05:19.751Z,45.90
2022-12-20T22:07:48.933Z,50.90
2022-12-20T22:10:17.840Z,47.63
2022-12-20T22:12:47.021Z,44.60
2022-12-20T22:15:15.992Z,43.93
2022-12-20T22:17:45.018Z,50.70
2022-12-20T22:20:15.592Z,41.93
2022-12-20T22:22:44.386Z,66.60
2022-12-20T22:25:13.258Z,41.70
2022-12-20T22:32:44.508Z,43.73
2022-12-20T22:35:13.663Z,41.53
2022-12-20T22:37:44.001Z,42.87
2022-12-20T22:40:12.237Z,40.03
2022-12-20T22:42:40.608Z,42.47
2022-12-20T22:45:09.951Z,39.37
2022-12-20T22:47:37.716Z,38.00
2022-12-20T23:55:08.948Z,27.50
2022-12-20T23:57:37.743Z,28.33
